createdAt,value
2018-03-28T00:02:25.676Z,0.73
2018-03-28T00:04:53.273Z,0.71
2018-03-28T00:07:20.926Z,0.64
2018-03-28T00:09:48.516Z,0.67
2018-03-28T00:12:16.160Z,0.68
2018-03-28T00:14:43.784Z,0.64
2018-03-28T00:17:11.422Z,0.64
2018-03-28T00:19:39.014Z,0.79
2018-03-28T00:22:06.648Z,0.70
2018-03-28T00:24:34.240Z,0.66
2018-03-28T00:27:01.875Z,0.62
2018-03-28T00:29:29.460Z,0.55
2018-03-28T00:31:57.048Z,0.52
2018-03-28T00:34:24.660Z,0.51
2018-03-28T00:36:52.287Z,0.51
2018-03-28T00:39:19.917Z,0.42
2018-03-28T00:41:47.512Z,0.40
2018-03-28T00:44:15.191Z,0.35
2018-03-28T00:46:42.821Z,0.32
2018-03-28T00:49:10.407Z,0.32
2018-03-28T00:51:38.079Z,0.32
2018-03-28T00:54:05.717Z,0.31
2018-03-28T00:56:33.328Z,0.26
2018-03-28T00:59:00.918Z,0.26
2018-03-28T01:01:28.527Z,0.26
2018-03-28T01:03:56.125Z,0.26
2018-03-28T01:06:23.720Z,0.26
2018-03-28T01:08:51.311Z,0.27
2018-03-28T01:11:18.976Z,0.28
2018-03-28T01:13:47.335Z,0.22
2018-03-28T01:16:14.990Z,0.25
2018-03-28T01:18:42.575Z,0.30
2018-03-28T01:21:10.271Z,0.30
2018-03-28T01:23:37.864Z,0.35
2018-03-28T01:26:05.501Z,0.42
2018-03-28T01:28:33.087Z,0.44
2018-03-28T01:31:01.650Z,0.46
2018-03-28T01:33:29.243Z,0.56
2018-03-28T01:35:56.867Z,0.55
2018-03-28T01:38:24.496Z,0.61
2018-03-28T01:40:52.083Z,0.58
2018-03-28T01:43:19.680Z,0.68
2018-03-28T01:45:47.264Z,0.63
2018-03-28T01:48:15.751Z,0.68
2018-03-28T01:50:44.081Z,0.67
2018-03-28T01:53:11.675Z,0.67
2018-03-28T01:55:40.194Z,0.71
2018-03-28T01:58:07.789Z,0.82
2018-03-28T02:00:36.210Z,0.96
2018-03-28T02:03:04.025Z,0.93
2018-03-28T02:05:32.602Z,0.83
2018-03-28T02:08:00.202Z,0.93
2018-03-28T02:10:27.795Z,0.89
2018-03-28T02:12:55.377Z,0.85
2018-03-28T02:15:22.961Z,0.93
2018-03-28T02:17:50.557Z,0.90
2018-03-28T02:20:18.195Z,0.89
2018-03-28T02:22:45.788Z,0.96
2018-03-28T02:25:13.375Z,0.89
2018-03-28T02:27:40.963Z,0.87
2018-03-28T02:30:08.595Z,0.88
2018-03-28T02:32:36.185Z,0.94
2018-03-28T02:35:03.847Z,0.90
2018-03-28T02:37:32.389Z,0.88
2018-03-28T02:40:00.770Z,0.87
2018-03-28T02:42:28.431Z,0.88
2018-03-28T02:44:56.024Z,0.87
2018-03-28T02:47:23.663Z,0.86
2018-03-28T02:49:51.254Z,0.91
2018-03-28T02:52:19.794Z,1.00
2018-03-28T02:54:47.410Z,1.03
2018-03-28T02:57:15.054Z,1.11
2018-03-28T02:59:43.429Z,1.15
2018-03-28T03:02:11.019Z,1.17
2018-03-28T03:04:39.357Z,1.25
2018-03-28T03:07:07.741Z,1.22
2018-03-28T03:09:36.271Z,1.19
2018-03-28T03:12:04.796Z,1.21
2018-03-28T03:14:33.323Z,1.12
2018-03-28T03:17:00.968Z,1.11
2018-03-28T03:19:29.411Z,1.14
2018-03-28T03:21:57.956Z,1.25
2018-03-28T03:24:26.494Z,1.22
2018-03-28T03:26:54.991Z,1.16
2018-03-28T03:29:23.476Z,1.15
2018-03-28T03:31:51.784Z,1.20
2018-03-28T03:34:19.780Z,1.15
2018-03-28T03:36:47.475Z,1.19
2018-03-28T03:39:15.139Z,1.19
2018-03-28T03:41:42.731Z,1.16
2018-03-28T03:44:10.317Z,1.21
2018-03-28T03:46:37.900Z,1.19
2018-03-28T03:49:06.161Z,1.24
2018-03-28T03:51:33.754Z,1.25
2018-03-28T03:54:02.194Z,1.31
2018-03-28T03:56:30.583Z,1.28
2018-03-28T03:58:59.151Z,1.34
2018-03-28T04:01:26.750Z,1.29
2018-03-28T04:03:55.267Z,1.37
2018-03-28T04:06:23.683Z,1.31
2018-03-28T04:08:51.285Z,1.39
2018-03-28T04:11:18.871Z,1.39
2018-03-28T04:13:46.462Z,1.57
2018-03-28T04:16:14.135Z,1.56
2018-03-28T04:18:41.774Z,1.61
2018-03-28T04:21:10.087Z,1.51
2018-03-28T04:23:37.682Z,1.51
2018-03-28T04:26:05.306Z,1.53
2018-03-28T04:28:32.887Z,1.53
2018-03-28T04:31:00.466Z,1.45
2018-03-28T04:33:28.089Z,1.48
2018-03-28T04:35:55.672Z,1.51
2018-03-28T04:38:24.092Z,1.53
2018-03-28T04:40:51.683Z,1.62
2018-03-28T04:43:19.294Z,1.63
2018-03-28T04:45:47.683Z,1.65
2018-03-28T04:48:15.289Z,1.69
2018-03-28T04:50:42.867Z,1.85
2018-03-28T04:53:10.447Z,1.81
2018-03-28T04:55:38.036Z,1.88
2018-03-28T04:58:05.624Z,1.84
2018-03-28T05:00:33.256Z,1.79
2018-03-28T05:03:00.844Z,1.80
2018-03-28T05:05:28.518Z,1.84
2018-03-28T05:07:56.085Z,1.75
2018-03-28T05:10:23.703Z,1.75
2018-03-28T05:12:51.322Z,1.83
2018-03-28T05:15:18.922Z,1.91
2018-03-28T05:17:46.554Z,1.87
2018-03-28T05:20:14.183Z,1.86
2018-03-28T05:22:41.795Z,1.83
2018-03-28T05:25:09.389Z,1.88
2018-03-28T05:27:36.971Z,1.79
2018-03-28T05:30:04.613Z,1.84
2018-03-28T05:32:32.202Z,1.84
2018-03-28T05:34:59.792Z,1.76
2018-03-28T05:37:27.384Z,1.75
2018-03-28T05:39:55.703Z,1.82
2018-03-28T05:42:24.112Z,1.73
2018-03-28T05:44:51.703Z,1.65
2018-03-28T05:47:19.288Z,1.80
2018-03-28T05:49:46.878Z,1.76
2018-03-28T05:52:14.483Z,1.62
2018-03-28T05:54:42.154Z,1.54
2018-03-28T05:57:09.928Z,1.52
2018-03-28T05:59:37.640Z,1.57
2018-03-28T06:02:05.377Z,1.45
2018-03-28T06:04:33.006Z,1.55
2018-03-28T06:07:00.632Z,1.46
2018-03-28T06:09:28.330Z,1.59
2018-03-28T06:11:56.020Z,1.52
2018-03-28T06:16:57.706Z,1.38
2018-03-28T06:19:25.323Z,1.41
2018-03-28T06:21:53.003Z,1.40
2018-03-28T06:24:20.865Z,1.46
2018-03-28T06:26:48.612Z,1.40
2018-03-28T06:29:16.215Z,1.43
2018-03-28T06:31:43.988Z,1.38
2018-03-28T06:34:11.770Z,1.46
2018-03-28T06:36:39.760Z,1.61
2018-03-28T06:39:07.407Z,1.63
2018-03-28T06:41:35.182Z,1.60
2018-03-28T06:44:03.634Z,1.55
2018-03-28T06:46:31.339Z,1.36
2018-03-28T06:48:59.040Z,1.46
2018-03-28T06:51:27.773Z,1.42
2018-03-28T06:53:56.410Z,1.47
2018-03-28T06:56:25.096Z,1.38
2018-03-28T06:58:53.683Z,1.41
2018-03-28T07:01:22.277Z,1.23
2018-03-28T07:03:50.141Z,1.51
2018-03-28T07:06:18.790Z,1.42
2018-03-28T07:08:47.461Z,1.43
2018-03-28T07:11:16.090Z,1.54
2018-03-28T07:13:43.786Z,1.48
2018-03-28T07:16:11.517Z,1.35
2018-03-28T07:18:40.307Z,1.45
2018-03-28T07:21:08.003Z,1.47
2018-03-28T07:23:35.702Z,1.48
2018-03-28T07:26:04.272Z,1.52
2018-03-28T07:28:32.787Z,1.52
2018-03-28T07:31:00.557Z,1.53
2018-03-28T07:33:28.236Z,1.47
2018-03-28T07:35:55.995Z,1.40
2018-03-28T07:38:23.651Z,1.44
2018-03-28T07:40:51.413Z,1.46
2018-03-28T07:43:19.082Z,1.42
2018-03-28T07:45:47.468Z,1.47
2018-03-28T07:48:15.116Z,1.35
2018-03-28T07:50:43.002Z,1.48
2018-03-28T07:53:10.767Z,1.47
2018-03-28T07:55:38.463Z,1.55
2018-03-28T07:58:06.997Z,1.52
2018-03-28T08:00:34.778Z,1.45
2018-03-28T08:03:02.554Z,1.54
2018-03-28T08:05:30.322Z,1.38
2018-03-28T08:07:58.066Z,1.46
2018-03-28T08:10:25.949Z,1.44
2018-03-28T08:12:53.711Z,1.43
2018-03-28T08:15:21.482Z,1.44
2018-03-28T08:17:50.237Z,1.48
2018-03-28T08:20:18.061Z,1.56
2018-03-28T08:23:04.440Z,1.46
2018-03-28T08:25:48.037Z,1.42
2018-03-28T08:28:34.769Z,1.60
2018-03-28T08:31:23.730Z,1.48
2018-03-28T08:34:10.781Z,1.57
2018-03-28T08:36:38.503Z,1.47
2018-03-28T08:39:06.389Z,1.48
2018-03-28T08:41:34.039Z,1.47
2018-03-28T08:44:02.635Z,1.42
2018-03-28T08:46:31.136Z,1.54
2018-03-28T08:48:59.578Z,1.51
2018-03-28T08:51:27.469Z,1.61
2018-03-28T08:53:55.211Z,1.63
2018-03-28T08:56:23.253Z,1.61
2018-03-28T08:58:51.889Z,1.73
2018-03-28T09:01:19.761Z,1.75
2018-03-28T09:03:47.408Z,1.73
2018-03-28T09:06:15.186Z,1.91
2018-03-28T09:08:43.770Z,1.73
2018-03-28T09:11:11.742Z,1.86
2018-03-28T09:13:39.490Z,1.97
2018-03-28T09:16:07.300Z,1.89
2018-03-28T09:18:34.933Z,1.84
2018-03-28T09:21:02.716Z,1.83
2018-03-28T09:23:31.504Z,1.94
2018-03-28T09:25:59.304Z,1.89
2018-03-28T09:28:27.002Z,1.94
2018-03-28T09:30:54.808Z,1.87
2018-03-28T09:33:22.555Z,1.95
2018-03-28T09:35:50.194Z,1.90
2018-03-28T09:38:18.072Z,1.83
2018-03-28T09:40:45.746Z,1.78
2018-03-28T09:43:13.542Z,1.67
2018-03-28T09:45:41.326Z,1.68
2018-03-28T09:48:09.198Z,1.67
2018-03-28T09:50:38.035Z,1.55
2018-03-28T09:53:05.825Z,1.72
2018-03-28T09:55:33.552Z,1.71
2018-03-28T09:58:01.466Z,1.72
2018-03-28T10:00:29.194Z,1.65
2018-03-28T10:03:02.708Z,1.83
2018-03-28T10:05:36.745Z,1.80
2018-03-28T10:08:04.464Z,1.82
2018-03-28T10:10:33.091Z,1.73
2018-03-28T10:13:01.748Z,1.82
2018-03-28T10:15:30.299Z,1.82
2018-03-28T10:17:58.105Z,1.73
2018-03-28T10:20:26.555Z,1.80
2018-03-28T10:22:54.199Z,1.79
2018-03-28T10:25:22.036Z,1.87
2018-03-28T10:27:49.910Z,1.77
2018-03-28T10:30:17.831Z,1.78
2018-03-28T10:32:45.612Z,1.80
2018-03-28T10:35:13.582Z,1.86
2018-03-28T10:37:42.038Z,1.87
2018-03-28T10:40:09.729Z,1.84
2018-03-28T10:42:38.228Z,1.84
2018-03-28T10:45:06.061Z,1.99
2018-03-28T10:47:33.755Z,1.98
2018-03-28T10:50:01.486Z,1.75
2018-03-28T10:52:29.319Z,1.80
2018-03-28T10:54:57.153Z,1.88
2018-03-28T10:57:25.711Z,1.96
2018-03-28T10:59:54.180Z,2.04
2018-03-28T11:02:21.863Z,1.95
2018-03-28T11:04:49.540Z,1.95
2018-03-28T11:07:17.204Z,1.89
2018-03-28T11:09:45.703Z,1.73
2018-03-28T11:12:13.430Z,1.85
2018-03-28T11:14:41.313Z,1.87
2018-03-28T11:17:09.063Z,1.89
2018-03-28T11:19:36.850Z,1.93
2018-03-28T11:22:04.820Z,1.84
2018-03-28T11:24:33.436Z,1.88
2018-03-28T11:27:01.268Z,1.84
2018-03-28T11:29:28.907Z,1.88
2018-03-28T11:31:56.641Z,2.02
2018-03-28T11:34:24.426Z,2.08
2018-03-28T11:36:52.120Z,2.01
2018-03-28T11:39:19.770Z,2.00
2018-03-28T11:41:47.463Z,2.11
2018-03-28T11:44:15.235Z,2.15
2018-03-28T11:46:43.988Z,1.99
2018-03-28T11:49:12.586Z,2.04
2018-03-28T11:51:41.176Z,2.03
2018-03-28T11:54:08.939Z,2.11
2018-03-28T11:56:36.825Z,2.17
2018-03-28T11:59:05.367Z,2.06
2018-03-28T12:01:33.001Z,2.19
2018-03-28T12:04:03.474Z,2.06
2018-03-28T12:06:31.114Z,2.09
2018-03-28T12:08:58.719Z,2.29
2018-03-28T12:11:27.183Z,2.25
2018-03-28T12:13:54.802Z,2.31
2018-03-28T12:16:22.615Z,2.35
2018-03-28T12:18:50.481Z,2.20
2018-03-28T12:21:19.185Z,2.24
2018-03-28T12:23:47.019Z,2.29
2018-03-28T12:26:14.980Z,2.26
2018-03-28T12:28:42.699Z,2.39
2018-03-28T12:31:10.550Z,2.22
2018-03-28T12:33:38.890Z,2.22
2018-03-28T12:36:06.579Z,2.30
2018-03-28T12:38:34.345Z,2.33
2018-03-28T12:41:02.009Z,2.35
2018-03-28T12:43:29.700Z,2.32
2018-03-28T12:45:57.344Z,2.29
2018-03-28T12:48:25.004Z,2.31
2018-03-28T12:50:52.794Z,2.12
2018-03-28T12:53:21.466Z,2.19
2018-03-28T12:55:49.129Z,2.18
2018-03-28T12:58:16.866Z,2.08
2018-03-28T13:00:45.455Z,2.26
2018-03-28T13:03:14.202Z,2.23
2018-03-28T13:05:41.810Z,2.38
2018-03-28T13:08:09.520Z,2.31
2018-03-28T13:10:37.370Z,2.38
2018-03-28T13:13:05.218Z,2.57
2018-03-28T13:15:33.137Z,2.55
2018-03-28T13:18:00.737Z,2.45
2018-03-28T13:20:29.332Z,2.30
2018-03-28T13:22:58.028Z,2.48
2018-03-28T13:25:26.414Z,2.50
2018-03-28T13:27:54.039Z,2.51
2018-03-28T13:30:21.815Z,2.47
2018-03-28T13:32:50.711Z,2.33
2018-03-28T13:35:19.400Z,2.22
2018-03-28T13:37:47.180Z,2.26
2018-03-28T13:40:15.011Z,2.23
2018-03-28T13:42:43.626Z,2.40
2018-03-28T13:45:12.426Z,2.29
2018-03-28T13:47:41.238Z,2.30
2018-03-28T13:50:09.382Z,2.39
2018-03-28T13:52:38.311Z,2.36
2018-03-28T13:55:06.989Z,2.38
2018-03-28T13:57:35.536Z,2.28
2018-03-28T14:00:04.250Z,2.32
2018-03-28T14:02:32.770Z,2.40
2018-03-28T14:05:01.442Z,2.41
2018-03-28T14:07:30.924Z,2.39
2018-03-28T14:10:00.539Z,2.34
2018-03-28T14:12:29.080Z,2.37
2018-03-28T14:14:57.912Z,2.38
2018-03-28T14:17:26.594Z,2.38
2018-03-28T14:19:56.390Z,2.39
2018-03-28T14:22:25.192Z,2.45
2018-03-28T14:24:53.978Z,2.39
2018-03-28T14:27:22.626Z,2.55
2018-03-28T14:29:50.330Z,2.49
2018-03-28T14:32:18.212Z,2.55
2018-03-28T14:34:46.815Z,2.40
2018-03-28T14:37:14.470Z,2.40
2018-03-28T14:39:42.354Z,2.41
2018-03-28T14:42:11.070Z,2.39
2018-03-28T14:44:39.870Z,2.42
2018-03-28T14:47:08.570Z,2.38
2018-03-28T14:49:37.678Z,2.25
2018-03-28T14:52:06.464Z,2.27
2018-03-28T14:54:35.131Z,2.30
2018-03-28T14:57:03.832Z,2.30
2018-03-28T14:59:31.555Z,2.16
2018-03-28T15:01:59.473Z,2.18
2018-03-28T15:04:28.241Z,2.15
2018-03-28T15:06:56.029Z,2.06
2018-03-28T15:09:23.913Z,2.15
2018-03-28T15:11:51.761Z,2.10
2018-03-28T15:14:19.719Z,2.04
2018-03-28T15:16:47.999Z,2.09
2018-03-28T15:19:15.774Z,2.05
2018-03-28T15:21:43.603Z,2.19
2018-03-28T15:24:11.390Z,2.19
2018-03-28T15:26:39.256Z,2.16
2018-03-28T15:29:07.337Z,2.12
2018-03-28T15:31:35.217Z,2.19
2018-03-28T15:34:02.975Z,2.14
2018-03-28T15:36:30.959Z,2.11
2018-03-28T15:38:59.770Z,2.21
2018-03-28T15:41:28.220Z,2.21
2018-03-28T15:43:56.115Z,2.07
2018-03-28T15:46:23.802Z,2.08
2018-03-28T15:48:51.749Z,2.13
2018-03-28T15:51:20.508Z,2.07
2018-03-28T15:53:50.310Z,2.00
2018-03-28T15:56:18.286Z,2.08
2018-03-28T15:58:47.185Z,2.01
2018-03-28T16:01:14.957Z,1.97
2018-03-28T16:03:43.041Z,1.93
2018-03-28T16:06:11.009Z,1.89
2018-03-28T16:08:39.825Z,1.93
2018-03-28T16:11:08.768Z,2.01
2018-03-28T16:13:36.599Z,1.90
2018-03-28T16:16:04.398Z,2.03
2018-03-28T16:18:32.084Z,2.01
2018-03-28T16:21:00.659Z,2.02
2018-03-28T16:23:28.754Z,2.02
2018-03-28T16:25:56.602Z,2.04
2018-03-28T16:28:25.151Z,2.04
2018-03-28T16:30:52.948Z,2.00
2018-03-28T16:33:20.855Z,2.06
2018-03-28T16:35:49.499Z,1.91
2018-03-28T16:38:17.159Z,1.93
2018-03-28T16:40:45.852Z,1.91
2018-03-28T16:43:15.072Z,1.99
2018-03-28T16:45:43.427Z,2.01
2018-03-28T16:48:11.615Z,1.94
2018-03-28T16:50:40.279Z,1.98
2018-03-28T16:53:08.147Z,1.94
2018-03-28T16:55:36.951Z,1.89
2018-03-28T16:58:04.813Z,1.90
2018-03-28T17:00:43.457Z,1.91
2018-03-28T17:03:12.018Z,1.97
2018-03-28T17:05:39.764Z,1.92
2018-03-28T17:08:07.468Z,1.92
2018-03-28T17:10:35.449Z,1.90
2018-03-28T17:13:03.389Z,1.98
2018-03-28T17:15:31.136Z,1.97
2018-03-28T17:18:01.068Z,1.85
2018-03-28T17:20:29.664Z,1.85
2018-03-28T17:22:57.409Z,1.86
2018-03-28T17:25:25.091Z,1.97
2018-03-28T17:27:53.263Z,1.96
2018-03-28T17:30:22.191Z,1.95
2018-03-28T17:32:51.996Z,1.87
2018-03-28T17:35:19.893Z,1.90
2018-03-28T17:37:48.514Z,1.96
2018-03-28T17:40:16.188Z,1.87
2018-03-28T17:42:43.870Z,1.90
2018-03-28T17:45:11.690Z,1.90
2018-03-28T17:47:40.400Z,1.99
2018-03-28T17:50:08.112Z,1.98
2018-03-28T17:52:36.039Z,1.90
2018-03-28T17:55:03.763Z,1.92
2018-03-28T17:57:32.568Z,1.98
2018-03-28T18:00:01.291Z,2.01
2018-03-28T18:02:29.944Z,1.93
2018-03-28T18:04:58.949Z,1.92
2018-03-28T18:07:29.266Z,1.94
2018-03-28T18:09:57.993Z,2.09
2018-03-28T18:12:27.059Z,2.05
2018-03-28T18:14:56.438Z,1.95
2018-03-28T18:17:25.289Z,1.93
2018-03-28T18:19:55.371Z,1.95
2018-03-28T18:22:25.022Z,1.98
2018-03-28T18:24:55.042Z,1.99
2018-03-28T18:27:24.018Z,2.02
2018-03-28T18:29:54.999Z,2.01
2018-03-28T18:32:23.626Z,2.03
2018-03-28T18:34:52.344Z,1.94
2018-03-28T18:37:22.104Z,1.99
2018-03-28T18:39:52.389Z,2.05
2018-03-28T18:42:21.076Z,2.02
2018-03-28T18:44:50.346Z,2.00
2018-03-28T18:47:18.643Z,2.06
2018-03-28T18:49:47.015Z,2.07
2018-03-28T18:52:15.584Z,2.00
2018-03-28T18:54:44.834Z,1.91
2018-03-28T18:57:13.386Z,1.99
2018-03-28T18:59:41.770Z,2.06
2018-03-28T19:02:11.117Z,1.98
2018-03-28T19:04:40.638Z,1.96
2018-03-28T19:07:10.999Z,2.02
2018-03-28T19:09:45.827Z,2.02
2018-03-28T19:12:14.825Z,2.02
2018-03-28T19:14:44.917Z,2.03
2018-03-28T19:17:14.090Z,2.03
2018-03-28T19:19:43.530Z,2.03
2018-03-28T19:22:12.105Z,2.02
2018-03-28T19:24:40.754Z,2.11
2018-03-28T19:27:11.011Z,2.06
2018-03-28T19:29:40.480Z,2.15
2018-03-28T19:32:09.184Z,2.14
2018-03-28T19:34:37.591Z,2.18
2018-03-28T19:37:07.256Z,2.14
2018-03-28T19:39:37.070Z,2.10
2018-03-28T19:42:06.580Z,2.14
2018-03-28T19:44:35.152Z,2.11
2018-03-28T19:47:04.484Z,2.09
2018-03-28T19:49:33.071Z,2.15
2018-03-28T19:52:02.923Z,2.18
2018-03-28T19:54:31.800Z,2.12
2018-03-28T19:57:01.594Z,2.15
2018-03-28T19:59:31.467Z,2.18
2018-03-28T20:02:00.543Z,2.15
2018-03-28T20:04:30.127Z,2.22
2018-03-28T20:06:59.802Z,2.16
2018-03-28T20:09:29.464Z,2.17
2018-03-28T20:11:58.335Z,2.22
2018-03-28T20:14:27.228Z,2.21
2018-03-28T20:16:55.927Z,2.25
2018-03-28T20:19:24.433Z,2.26
2018-03-28T20:21:52.973Z,2.26
2018-03-28T20:24:21.976Z,2.29
2018-03-28T20:26:51.754Z,2.22
2018-03-28T20:29:20.597Z,2.24
2018-03-28T20:31:49.385Z,2.27
2018-03-28T20:34:18.165Z,2.34
2018-03-28T20:36:47.995Z,2.29
2018-03-28T20:39:17.696Z,2.23
2018-03-28T20:41:47.266Z,2.29
2018-03-28T20:44:28.563Z,2.33
2018-03-28T20:46:57.151Z,2.29
2018-03-28T20:49:25.644Z,2.21
2018-03-28T20:51:53.252Z,2.33
2018-03-28T20:54:21.696Z,2.35
2018-03-28T20:56:49.298Z,2.34
2018-03-28T20:59:16.925Z,2.36
2018-03-28T21:01:44.782Z,2.27
2018-03-28T21:04:13.264Z,2.25
2018-03-28T21:06:41.791Z,2.32
2018-03-28T21:09:10.192Z,2.31
2018-03-28T21:11:38.744Z,2.29
2018-03-28T21:14:07.238Z,2.20
2018-03-28T21:16:34.826Z,2.27
2018-03-28T21:19:02.414Z,2.23
2018-03-28T21:21:30.015Z,2.26
2018-03-28T21:23:57.619Z,2.30
2018-03-28T21:26:25.200Z,2.33
2018-03-28T21:28:52.819Z,2.28
2018-03-28T21:31:21.032Z,2.21
2018-03-28T21:33:48.614Z,2.27
2018-03-28T21:36:16.200Z,2.28
2018-03-28T21:38:43.827Z,2.28
2018-03-28T21:41:12.355Z,2.22
2018-03-28T21:43:40.784Z,2.26
2018-03-28T21:46:08.395Z,2.36
2018-03-28T21:48:36.942Z,2.29
2018-03-28T21:51:05.339Z,2.35
2018-03-28T21:53:33.881Z,2.31
2018-03-28T21:56:02.302Z,2.35
2018-03-28T21:58:30.496Z,2.33
2018-03-28T22:00:58.907Z,2.41
2018-03-28T22:03:26.487Z,2.46
2018-03-28T22:05:54.103Z,2.43
2018-03-28T22:08:22.621Z,2.39
2018-03-28T22:10:51.086Z,2.48
2018-03-28T22:13:19.483Z,2.43
2018-03-28T22:15:47.863Z,2.47
2018-03-28T22:18:15.454Z,2.48
2018-03-28T22:20:43.075Z,2.49
2018-03-28T22:23:11.567Z,2.52
2018-03-28T22:25:39.989Z,2.52
2018-03-28T22:28:07.607Z,2.50
2018-03-28T22:30:36.023Z,2.53
2018-03-28T22:33:04.675Z,2.51
2018-03-28T22:35:32.251Z,2.51
2018-03-28T22:37:59.921Z,2.60
2018-03-28T22:40:27.503Z,2.64
2018-03-28T22:42:56.011Z,2.71
2018-03-28T22:45:23.639Z,2.55
2018-03-28T22:47:51.271Z,2.61
2018-03-28T22:50:18.864Z,2.60
2018-03-28T22:52:46.479Z,2.66
2018-03-28T22:55:14.079Z,2.73
2018-03-28T22:57:41.661Z,2.63
2018-03-28T23:00:09.335Z,2.71
2018-03-28T23:02:36.918Z,2.78
2018-03-28T23:05:05.500Z,2.65
2018-03-28T23:07:33.087Z,2.73
2018-03-28T23:10:01.520Z,2.78
2018-03-28T23:12:30.173Z,2.77
2018-03-28T23:14:58.618Z,2.78
2018-03-28T23:17:26.910Z,2.83
2018-03-28T23:19:54.489Z,2.77
2018-03-28T23:22:34.816Z,2.86
2018-03-28T23:25:03.291Z,2.76
2018-03-28T23:27:31.602Z,2.74
2018-03-28T23:30:00.078Z,2.84
2018-03-28T23:32:27.673Z,2.87
2018-03-28T23:34:55.299Z,2.83
2018-03-28T23:37:22.880Z,2.85
2018-03-28T23:39:51.454Z,2.83
2018-03-28T23:42:19.046Z,2.94
2018-03-28T23:44:46.628Z,2.82
2018-03-28T23:47:14.247Z,2.85
2018-03-28T23:49:41.861Z,2.86
2018-03-28T23:52:09.467Z,2.94
2018-03-28T23:54:37.133Z,2.92
2018-03-28T23:57:04.714Z,2.84
2018-03-28T23:59:32.292Z,2.90
